.
WxDataArchive / Data Records for 2015-08-05
2015-08-04 August 2015 2015-08-06

Data Records for Wednesday, 05 August 2015

Time	Temp	Chill	HIndex	Humid	Dewpt	 Wind 	HiWind	WindDir	Rain 	Barom
-----	----	-----	------	-----	-----	------	------	-------	-----	-----
00:00	65.2	65.2	65.2	80	58.9	0	0	---	0.00	29.975 
00:05	65.0	65.0	65.0	80	58.7	0	0	---	0.00	29.975 
00:10	64.8	64.8	64.8	81	58.8	0	0	---	0.00	29.975 
00:15	64.7	64.7	64.7	81	58.7	0	0	---	0.00	29.981 
00:20	64.5	64.5	64.5	82	58.9	0	0	---	0.00	29.981 
00:25	64.5	64.5	64.5	82	58.9	0	0	---	0.00	29.981 
00:30	64.5	64.5	64.5	83	59.2	0	0	---	0.00	29.983 
00:35	64.3	64.3	64.3	83	59.0	0	0	---	0.00	29.983 
00:40	64.3	64.3	64.3	83	59.0	0	0	---	0.00	29.983 
00:45	64.3	64.3	64.3	83	59.0	0	0	---	0.00	29.986 
00:50	64.3	64.3	64.3	82	58.7	0	0	---	0.00	29.986 
00:55	64.5	64.5	64.5	81	58.5	0	0	---	0.00	29.986 
01:00	64.7	64.7	64.7	80	58.4	0	0	---	0.00	29.985 
01:05	65.0	65.0	65.0	79	58.3	0	0	---	0.00	29.985 
01:10	65.2	65.2	65.2	78	58.2	0	0	---	0.00	29.985 
01:15	65.2	65.2	65.2	77	57.8	0	0	---	0.00	29.984 
01:20	65.2	65.2	65.2	78	58.2	0	0	---	0.00	29.984 
01:25	65.2	65.2	65.2	78	58.2	0	0	---	0.00	29.984 
01:30	65.0	65.0	65.0	78	58.0	0	0	---	0.00	29.983 
01:35	64.8	64.8	64.8	78	57.8	0	0	---	0.00	29.983 
01:40	64.5	64.5	64.5	79	57.8	0	0	---	0.00	29.983 
01:45	64.3	64.3	64.3	79	57.6	0	0	---	0.00	29.984 
01:50	64.0	64.0	64.0	80	57.7	0	0	---	0.00	29.984 
01:55	63.9	63.9	63.9	81	57.9	0	0	---	0.00	29.984 
02:00	63.7	63.7	63.7	81	57.8	0	0	---	0.00	29.979 
02:05	63.5	63.5	63.5	81	57.6	0	0	---	0.00	29.979 
02:10	63.4	63.4	63.4	81	57.5	0	0	---	0.00	29.979 
02:15	63.2	63.2	63.2	82	57.6	0	0	---	0.00	29.976 
02:20	63.1	63.1	63.1	82	57.5	0	0	---	0.00	29.976 
02:25	62.9	62.9	62.9	83	57.7	0	0	---	0.00	29.976 
02:30	62.7	62.7	62.7	83	57.5	0	0	---	0.00	29.974 
02:35	62.6	62.6	62.6	84	57.7	0	0	---	0.00	29.974 
02:40	62.4	62.4	62.4	84	57.5	0	0	---	0.00	29.974 
02:45	62.1	62.1	62.1	84	57.2	0	0	---	0.00	29.973 
02:50	62.0	62.0	62.0	85	57.4	0	0	---	0.00	29.973 
02:55	61.8	61.8	61.8	85	57.2	0	0	---	0.00	29.973 
03:00	61.6	61.6	61.6	85	57.0	0	0	---	0.00	29.972 
03:05	61.5	61.5	61.5	86	57.3	0	0	---	0.00	29.972 
03:10	61.3	61.3	61.3	86	57.1	0	0	---	0.00	29.972 
03:15	61.2	61.2	61.2	87	57.3	0	0	---	0.00	29.976 
03:20	61.0	61.0	61.0	87	57.1	0	0	---	0.00	29.976 
03:25	60.9	60.9	60.9	88	57.3	0	0	---	0.00	29.976 
03:30	60.7	60.7	60.7	88	57.1	0	0	---	0.00	29.980 
03:35	60.5	60.5	60.5	88	56.9	0	0	---	0.00	29.980 
03:40	60.4	60.4	60.4	88	56.8	0	0	---	0.00	29.980 
03:45	60.4	60.4	60.4	88	56.8	0	0	---	0.00	29.980 
03:50	60.2	60.2	60.2	88	56.6	0	0	---	0.00	29.980 
03:55	60.1	60.1	60.1	89	56.8	0	0	---	0.00	29.980 
04:00	59.9	59.9	59.9	89	56.6	0	0	---	0.00	29.980 
04:05	59.8	59.8	59.8	89	56.5	0	0	---	0.00	29.980 
04:10	59.6	59.6	59.6	89	56.4	0	0	---	0.00	29.980 
04:15	59.6	59.6	59.6	89	56.4	0	0	---	0.00	29.981 
04:20	59.5	59.5	59.5	90	56.6	0	0	---	0.00	29.981 
04:25	59.5	59.5	59.5	90	56.6	0	0	---	0.00	29.981 
04:30	59.3	59.3	59.3	90	56.4	0	0	---	0.00	29.978 
04:35	59.2	59.2	59.2	90	56.3	0	0	---	0.00	29.978 
04:40	59.0	59.0	59.0	90	56.1	0	0	---	0.00	29.978 
04:45	59.0	59.0	59.0	90	56.1	0	0	---	0.00	29.978 
04:50	58.9	58.9	58.9	90	56.0	0	0	---	0.00	29.978 
04:55	58.9	58.9	58.9	91	56.3	0	0	---	0.00	29.978 
05:00	58.7	58.7	58.7	91	56.1	0	0	---	0.00	29.983 
05:05	58.7	58.7	58.7	91	56.1	0	0	---	0.00	29.983 
05:10	58.6	58.6	58.6	91	56.0	0	0	---	0.00	29.983 
05:15	58.4	58.4	58.4	91	55.8	0	0	---	0.00	29.983 
05:20	58.4	58.4	58.4	91	55.8	0	0	---	0.00	29.983 
05:25	58.3	58.3	58.3	91	55.7	0	0	---	0.00	29.983 
05:30	58.1	58.1	58.1	91	55.5	0	0	---	0.00	29.986 
05:35	58.0	58.0	58.0	91	55.4	0	0	---	0.00	29.986 
05:40	58.0	58.0	58.0	91	55.4	0	0	---	0.00	29.986 
05:45	57.8	57.8	57.8	92	55.5	0	0	---	0.00	29.990 
05:50	57.6	57.6	57.6	92	55.3	0	0	---	0.00	29.990 
05:55	57.6	57.6	57.6	92	55.3	0	0	---	0.00	29.990 
06:00	57.5	57.5	57.5	92	55.2	0	0	---	0.00	29.990 
06:05	57.5	57.5	57.5	92	55.2	0	0	---	0.00	29.990 
06:10	57.3	57.3	57.3	92	55.0	0	0	---	0.00	29.990 
06:15	57.3	57.3	57.3	92	55.0	0	0	---	0.00	29.998 
06:20	57.2	57.2	57.2	92	54.9	0	0	---	0.00	29.998 
06:25	57.2	57.2	57.2	92	54.9	0	0	---	0.00	29.998 
06:30	57.2	57.2	57.2	92	54.9	0	0	---	0.00	30.004 
06:35	57.0	57.0	57.0	92	54.7	0	0	---	0.00	30.004 
06:40	57.0	57.0	57.0	92	54.7	0	0	---	0.00	30.004 
06:45	57.0	57.0	57.0	92	54.7	0	0	---	0.00	30.007 
06:50	56.9	56.9	56.9	92	54.6	0	0	---	0.00	30.007 
06:55	56.9	56.9	56.9	92	54.6	0	0	---	0.00	30.007 
07:00	56.9	56.9	56.9	92	54.6	0	0	---	0.00	30.009 
07:05	56.9	56.9	56.9	92	54.6	0	0	---	0.00	30.009 
07:10	56.9	56.9	56.9	93	54.9	0	0	---	0.00	30.009 
07:15	56.9	56.9	56.9	93	54.9	0	0	---	0.00	30.014 
07:20	56.9	56.9	56.9	93	54.9	0	0	---	0.00	30.014 
07:25	57.0	57.0	57.0	93	55.0	0	0	---	0.00	30.014 
07:30	57.2	57.2	57.2	93	55.2	0	0	---	0.00	30.021 
07:35	57.6	57.6	57.6	93	55.6	0	0	---	0.00	30.021 
07:40	58.0	58.0	58.0	93	56.0	0	0	---	0.00	30.021 
07:45	58.4	58.4	58.4	94	56.7	0	0	---	0.00	30.024 
07:50	58.9	58.9	58.9	94	57.2	0	0	---	0.00	30.024 
07:55	59.6	59.6	59.6	94	57.9	0	0	---	0.00	30.024 
08:00	60.1	60.1	60.1	94	58.4	0	0	---	0.00	30.025 
08:05	60.7	60.7	60.7	94	59.0	0	0	---	0.00	30.025 
08:10	61.5	61.5	61.5	93	59.5	0	0	---	0.00	30.025 
08:15	62.7	62.7	62.7	94	60.9	0	1	270	0.00	30.023 
08:20	63.9	63.9	63.9	90	60.9	0	1	270	0.00	30.023 
08:25	64.8	64.8	64.8	88	61.2	0	1	270	0.00	30.023 
08:30	65.8	65.8	65.8	83	60.5	0	1	270	0.00	30.022 
08:35	66.8	66.8	66.8	77	59.3	0	1	270	0.00	30.022 
08:40	67.6	67.6	67.6	74	59.0	0	2	270	0.00	30.022 
08:45	68.3	68.3	68.3	71	58.5	0	3	0	0.00	30.031 
08:50	68.4	68.4	68.4	70	58.2	1	3	0	0.00	30.031 
08:55	68.8	68.8	68.8	70	58.6	0	2	0	0.00	30.031 
09:00	69.1	69.1	69.1	69	58.5	1	3	0	0.00	30.030 
09:05	69.4	69.4	69.4	68	58.4	0	2	0	0.00	30.030 
09:10	69.9	69.9	69.9	68	58.8	0	2	0	0.00	30.030 
09:15	70.4	70.4	70.4	67	58.9	0	2	0	0.00	30.028 
09:20	70.6	70.6	70.6	65	58.2	0	2	0	0.00	30.028 
09:25	70.8	70.8	70.8	61	56.7	0	3	0	0.00	30.028 
09:30	71.1	71.1	71.1	60	56.5	1	2	22	0.00	30.028 
09:35	71.6	71.6	71.6	60	57.0	0	0	---	0.00	30.028 
09:40	72.3	72.3	72.3	61	58.1	0	0	---	0.00	30.028 
09:45	73.0	73.0	73.0	61	58.7	0	2	22	0.00	30.029 
09:50	73.5	73.5	73.5	52	54.8	0	2	22	0.00	30.029 
09:55	74.2	74.2	74.2	56	57.5	0	1	22	0.00	30.029 
10:00	74.9	74.9	74.9	53	56.6	0	2	22	0.00	30.029 
10:05	74.9	74.9	74.9	54	57.1	1	4	22	0.00	30.029 
10:10	75.1	75.1	77.6	55	57.8	0	1	22	0.00	30.029 
10:15	74.9	74.9	74.9	52	56.1	1	3	22	0.00	30.031 
10:20	74.7	74.7	74.7	52	55.9	0	2	22	0.00	30.031 
10:25	75.1	75.1	77.7	51	55.7	1	3	22	0.00	30.031 
10:30	74.9	74.9	74.9	55	57.6	1	3	45	0.00	30.030 
10:35	75.1	75.1	77.6	55	57.8	0	3	45	0.00	30.030 
10:40	75.8	75.8	78.0	53	57.4	0	3	45	0.00	30.030 
10:45	76.3	76.3	78.2	51	56.8	1	3	45	0.00	30.031 
10:50	76.8	76.8	78.4	48	55.6	1	3	45	0.00	30.031 
10:55	77.0	77.0	78.6	49	56.4	1	4	45	0.00	30.031 
11:00	76.8	76.8	78.5	52	57.8	0	3	90	0.00	30.030 
11:05	76.5	76.5	78.3	49	55.9	1	4	90	0.00	30.030 
11:10	76.5	76.5	78.3	49	55.9	1	3	90	0.00	30.030 
11:15	76.3	76.3	78.2	50	56.3	1	2	90	0.00	30.030 
11:20	76.3	76.3	78.2	49	55.7	1	4	90	0.00	30.030 
11:25	76.3	76.3	78.2	47	54.6	1	4	90	0.00	30.030 
11:30	76.5	76.5	78.4	52	57.5	0	2	90	0.00	30.033 
11:35	76.8	76.8	78.4	48	55.6	1	6	90	0.00	30.033 
11:40	77.0	77.0	78.5	47	55.2	0	3	90	0.00	30.033 
11:45	77.7	77.7	79.1	51	58.1	1	3	90	0.00	30.030 
11:50	78.3	78.3	79.3	48	57.0	0	1	90	0.00	30.030 
11:55	78.6	78.6	79.5	47	56.7	1	3	90	0.00	30.030 
12:00	78.5	78.5	79.3	45	55.4	1	4	90	0.00	30.026 
12:05	78.6	78.6	79.4	46	56.1	1	4	90	0.00	30.026 
12:10	78.6	78.6	79.5	47	56.7	1	3	90	0.00	30.026 
12:15	78.6	78.6	79.5	47	56.7	0	2	90	0.00	30.022 
12:20	78.5	78.5	79.4	46	56.0	0	2	90	0.00	30.022 
12:25	77.9	77.9	79.2	50	57.7	0	2	90	0.00	30.022 
12:30	78.1	78.1	79.1	46	55.6	0	2	90	0.00	30.024 
12:35	78.6	78.6	79.5	47	56.7	0	1	90	0.00	30.024 
12:40	78.6	78.6	79.4	46	56.1	0	3	22	0.00	30.024 
12:45	78.1	78.1	79.0	45	55.0	1	3	338	0.00	30.022 
12:50	77.7	77.7	78.8	44	54.0	1	3	338	0.00	30.022 
12:55	77.7	77.7	78.8	45	54.6	1	3	338	0.00	30.022 
13:00	77.7	77.7	78.8	45	54.6	0	3	292	0.00	30.021 
13:05	78.5	78.5	79.5	48	57.2	0	1	292	0.00	30.021 
13:10	79.2	79.2	79.9	47	57.2	0	1	68	0.00	30.021 
13:15	79.4	79.4	80.0	46	56.8	0	2	68	0.00	30.023 
13:20	79.4	79.4	79.9	45	56.2	1	2	292	0.00	30.023 
13:25	79.0	79.0	79.6	44	55.2	0	3	292	0.00	30.023 
13:30	79.4	79.4	80.3	50	59.1	0	1	292	0.00	30.018 
13:35	79.2	79.2	79.7	44	55.4	1	3	270	0.00	30.018 
13:40	79.2	79.2	79.7	44	55.4	1	3	270	0.00	30.018 
13:45	79.2	79.2	79.6	43	54.7	1	2	270	0.00	30.017 
13:50	79.4	79.4	79.8	44	55.6	0	1	270	0.00	30.017 
13:55	79.8	79.8	80.2	45	56.5	1	4	90	0.00	30.017 
14:00	79.9	79.9	80.4	46	57.2	1	3	90	0.00	30.014 
14:05	79.9	79.9	80.4	46	57.2	2	4	90	0.00	30.014 
14:10	79.6	79.6	79.9	43	55.1	0	2	90	0.00	30.014 
14:15	79.2	79.2	79.6	43	54.7	0	1	90	0.00	30.018 
14:20	78.6	78.6	79.3	44	54.8	0	1	90	0.00	30.018 
14:25	78.6	78.6	79.3	44	54.8	0	1	90	0.00	30.018 
14:30	78.8	78.8	79.5	45	55.6	0	1	90	0.00	30.017 
14:35	78.8	78.8	79.3	42	53.7	0	2	90	0.00	30.017 
14:40	78.8	78.8	79.4	43	54.4	1	4	90	0.00	30.017 
14:45	78.8	78.8	79.6	46	56.2	0	3	90	0.00	30.013 
14:50	79.0	79.0	79.6	44	55.2	0	2	90	0.00	30.013 
14:55	78.8	78.8	79.6	46	56.2	1	4	112	0.00	30.013 
15:00	78.5	78.5	79.2	44	54.7	0	1	112	0.00	30.008 
15:05	78.3	78.3	79.1	44	54.6	0	0	---	0.00	30.008 
15:10	78.5	78.5	79.2	44	54.7	0	2	112	0.00	30.008 
15:15	78.8	78.8	79.4	44	55.0	0	2	112	0.00	30.005 
15:20	79.4	79.4	79.8	43	54.9	0	1	112	0.00	30.005 
15:25	80.1	80.1	80.4	45	56.8	0	1	112	0.00	30.005 
15:30	80.5	80.5	80.6	43	55.9	0	3	112	0.00	29.998 
15:35	80.9	80.9	80.9	43	56.3	0	3	112	0.00	29.998 
15:40	80.5	80.5	80.4	41	54.6	1	4	112	0.00	29.998 
15:45	79.9	79.9	80.0	42	54.7	0	1	112	0.00	29.999 
15:50	79.6	79.6	79.9	43	55.1	0	1	112	0.00	29.999 
15:55	79.6	79.6	79.9	43	55.1	0	0	---	0.00	29.999 
16:00	79.6	79.6	79.9	43	55.1	0	1	112	0.00	29.997 
16:05	79.2	79.2	79.7	44	55.4	0	2	112	0.00	29.997 
16:10	78.6	78.6	79.3	44	54.8	0	2	112	0.00	29.997 
16:15	78.6	78.6	79.3	44	54.8	0	1	112	0.00	29.994 
16:20	79.2	79.2	79.7	44	55.4	0	1	112	0.00	29.994 
16:25	79.9	79.9	80.2	44	56.0	0	1	112	0.00	29.994 
16:30	80.7	80.7	80.5	41	54.8	0	1	112	0.00	29.990 
16:35	81.2	81.2	80.8	40	54.6	0	1	112	0.00	29.990 
16:40	81.2	81.2	80.8	40	54.6	0	1	112	0.00	29.990 
16:45	81.1	81.1	80.7	40	54.5	0	1	112	0.00	29.989 
16:50	80.9	80.9	80.7	41	55.0	1	3	112	0.00	29.989 
16:55	80.7	80.7	80.7	43	56.1	0	2	90	0.00	29.989 
17:00	80.3	80.3	80.5	44	56.4	0	2	90	0.00	29.989 
17:05	79.6	79.6	79.9	43	55.1	0	1	90	0.00	29.989 
17:10	79.4	79.4	79.8	43	54.9	0	2	90	0.00	29.989 
17:15	79.4	79.4	80.0	46	56.8	0	2	90	0.00	29.992 
17:20	79.2	79.2	79.5	42	54.1	1	3	90	0.00	29.992 
17:25	79.2	79.2	79.6	43	54.7	0	1	90	0.00	29.992 
17:30	79.6	79.6	79.8	42	54.5	0	1	90	0.00	29.990 
17:35	79.9	79.9	79.9	40	53.4	0	1	90	0.00	29.990 
17:40	80.3	80.3	80.4	43	55.7	0	1	90	0.00	29.990 
17:45	80.3	80.3	80.1	39	53.1	0	1	90	0.00	29.987 
17:50	80.1	80.1	79.9	39	52.9	0	1	90	0.00	29.987 
17:55	80.1	80.1	79.9	39	52.9	0	2	90	0.00	29.987 
18:00	80.1	80.1	80.0	40	53.6	0	1	90	0.00	29.984 
18:05	80.1	80.1	80.3	43	55.6	0	0	---	0.00	29.984 
18:10	80.1	80.1	80.5	46	57.4	0	2	90	0.00	29.984 
18:15	79.8	79.8	80.1	44	55.9	0	3	90	0.00	29.983 
18:20	79.2	79.2	79.6	43	54.7	0	2	90	0.00	29.983 
18:25	79.0	79.0	79.5	43	54.6	0	0	---	0.00	29.983 
18:30	78.8	78.8	79.4	44	55.0	0	1	90	0.00	29.980 
18:35	78.6	78.6	79.3	44	54.8	0	1	90	0.00	29.980 
18:40	78.5	78.5	79.2	44	54.7	0	2	90	0.00	29.980 
18:45	78.3	78.3	79.1	44	54.6	0	1	90	0.00	29.980 
18:50	78.3	78.3	79.1	43	53.9	0	1	90	0.00	29.980 
18:55	78.1	78.1	79.0	44	54.4	0	1	90	0.00	29.980 
19:00	77.9	77.9	78.9	45	54.8	0	0	---	0.00	29.978 
19:05	77.9	77.9	79.0	46	55.4	0	0	---	0.00	29.978 
19:10	77.9	77.9	79.0	47	56.0	0	0	---	0.00	29.978 
19:15	77.9	77.9	78.9	45	54.8	0	0	---	0.00	29.975 
19:20	77.7	77.7	78.9	46	55.2	0	0	---	0.00	29.975 
19:25	77.6	77.6	78.8	45	54.6	0	0	---	0.00	29.975 
19:30	77.4	77.4	78.7	46	55.0	0	0	---	0.00	29.972 
19:35	77.2	77.2	78.7	49	56.5	0	1	90	0.00	29.972 
19:40	77.0	77.0	78.6	49	56.4	0	0	---	0.00	29.972 
19:45	76.8	76.8	78.5	51	57.3	0	0	---	0.00	29.974 
19:50	76.8	76.8	78.5	53	58.4	0	0	---	0.00	29.974 
19:55	76.7	76.7	78.5	54	58.8	0	0	---	0.00	29.974 
20:00	76.3	76.3	78.3	54	58.4	0	1	90	0.00	29.974 
20:05	76.1	76.1	78.1	54	58.2	0	0	---	0.00	29.974 
20:10	75.8	75.8	78.0	55	58.5	0	0	---	0.00	29.974 
20:15	75.6	75.6	77.8	56	58.8	0	0	---	0.00	29.968 
20:20	75.4	75.4	77.7	57	59.1	0	0	---	0.00	29.968 
20:25	75.3	75.3	77.6	57	59.0	0	0	---	0.00	29.968 
20:30	74.9	74.9	74.9	57	58.6	0	0	---	0.00	29.968 
20:35	74.6	74.6	74.6	57	58.3	0	0	---	0.00	29.968 
20:40	74.2	74.2	74.2	57	58.0	0	0	---	0.00	29.968 
20:45	74.0	74.0	74.0	58	58.3	0	0	---	0.00	29.968 
20:50	73.7	73.7	73.7	58	58.0	0	0	---	0.00	29.968 
20:55	73.2	73.2	73.2	58	57.5	0	0	---	0.00	29.968 
21:00	72.8	72.8	72.8	58	57.1	0	0	---	0.00	29.963 
21:05	72.7	72.7	72.7	60	58.0	0	0	---	0.00	29.963 
21:10	72.5	72.5	72.5	61	58.3	0	0	---	0.00	29.963 
21:15	72.1	72.1	72.1	62	58.3	0	0	---	0.00	29.960 
21:20	72.0	72.0	72.0	63	58.7	0	0	---	0.00	29.960 
21:25	71.6	71.6	71.6	64	58.8	0	0	---	0.00	29.960 
21:30	71.5	71.5	71.5	65	59.1	0	0	---	0.00	29.965 
21:35	71.3	71.3	71.3	66	59.3	0	0	---	0.00	29.965 
21:40	70.9	70.9	70.9	67	59.4	0	0	---	0.00	29.965 
21:45	70.8	70.8	70.8	68	59.7	0	0	---	0.00	29.967 
21:50	70.6	70.6	70.6	69	59.9	0	0	---	0.00	29.967 
21:55	70.4	70.4	70.4	71	60.5	0	0	---	0.00	29.967 
22:00	70.1	70.1	70.1	72	60.6	0	0	---	0.00	29.970 
22:05	69.9	69.9	69.9	73	60.8	0	0	---	0.00	29.970 
22:10	69.8	69.8	69.8	73	60.7	0	0	---	0.00	29.970 
22:15	69.6	69.6	69.6	73	60.6	0	0	---	0.00	29.974 
22:20	69.3	69.3	69.3	73	60.3	0	0	---	0.00	29.974 
22:25	69.1	69.1	69.1	74	60.5	0	0	---	0.00	29.974 
22:30	68.9	68.9	68.9	75	60.6	0	0	---	0.00	29.981 
22:35	68.8	68.8	68.8	76	60.9	0	0	---	0.00	29.981 
22:40	68.6	68.6	68.6	76	60.7	0	0	---	0.00	29.981 
22:45	68.4	68.4	68.4	77	60.9	0	0	---	0.00	29.980 
22:50	68.3	68.3	68.3	77	60.8	0	0	---	0.00	29.980 
22:55	68.1	68.1	68.1	78	61.0	0	0	---	0.00	29.980 
23:00	67.9	67.9	67.9	79	61.1	0	0	---	0.00	29.971 
23:05	67.8	67.8	67.8	79	61.0	0	0	---	0.00	29.971 
23:10	67.6	67.6	67.6	80	61.2	0	0	---	0.00	29.971 
23:15	67.4	67.4	67.4	81	61.4	0	0	---	0.00	29.965 
23:20	67.3	67.3	67.3	81	61.3	0	0	---	0.00	29.965 
23:25	67.1	67.1	67.1	82	61.4	0	0	---	0.00	29.965 
23:30	66.9	66.9	66.9	82	61.2	0	0	---	0.00	29.964 
23:35	66.8	66.8	66.8	82	61.1	0	0	---	0.00	29.964 
23:40	66.6	66.6	66.6	83	61.3	0	0	---	0.00	29.964 
23:45	66.4	66.4	66.4	83	61.1	0	0	---	0.00	29.964 
23:50	66.4	66.4	66.4	83	61.1	0	0	---	0.00	29.964 
23:55	66.3	66.3	66.3	83	61.0	0	0	---	0.00	29.964 

CoCoRaHS
IN-AL-39
A2 Web Hosting
Creative Commons License
GoDaddy
search engine by freefind advanced

loaded 2018-11-19 10:32:02 • last modified 2010-11-18 10:43:29
Privacy PolicyDisclaimer
• wx.awcolley.com is powered by PmWiki v.2002016 •
• all content (unless otherwise noted) © 2018 A W Colley